createdAt,value
2023-04-20T00:01:49.691Z,74.06
2023-04-20T00:04:18.365Z,74.07
2023-04-20T00:06:46.728Z,72.62
2023-04-20T00:09:16.304Z,73.91
2023-04-20T00:11:44.716Z,73.58
2023-04-20T00:14:13.037Z,72.73
2023-04-20T00:16:41.356Z,72.52
2023-04-20T00:19:11.145Z,72.80
2023-04-20T00:21:39.573Z,73.28
2023-04-20T00:24:08.402Z,72.75
2023-04-20T00:26:36.709Z,73.57
2023-04-20T00:29:05.247Z,72.45
2023-04-20T00:31:33.652Z,73.12
2023-04-20T00:34:01.879Z,73.24
2023-04-20T00:36:31.634Z,73.89
2023-04-20T00:39:01.188Z,73.56
2023-04-20T00:41:30.366Z,73.04
2023-04-20T00:44:00.946Z,74.12
2023-04-20T00:46:29.362Z,73.88
2023-04-20T00:48:59.470Z,74.84
2023-04-20T00:51:29.423Z,75.61
2023-04-20T00:54:01.261Z,74.44
2023-04-20T00:56:29.671Z,73.35
2023-04-20T00:58:57.954Z,74.18
2023-04-20T01:01:27.378Z,73.99
2023-04-20T01:03:56.086Z,73.06
2023-04-20T01:06:24.424Z,73.77
2023-04-20T01:08:55.166Z,73.15
2023-04-20T01:11:24.887Z,73.11
2023-04-20T01:13:53.133Z,72.67
2023-04-20T01:16:21.763Z,72.89
2023-04-20T01:18:51.779Z,72.86
2023-04-20T01:21:22.522Z,73.10
2023-04-20T01:23:52.413Z,73.41
2023-04-20T01:26:21.739Z,74.29
2023-04-20T01:28:52.386Z,73.06
2023-04-20T01:31:21.239Z,72.64
2023-04-20T01:33:50.105Z,74.90
2023-04-20T01:36:22.358Z,74.09
2023-04-20T01:38:52.186Z,73.38
2023-04-20T01:41:21.034Z,73.86
2023-04-20T01:43:50.602Z,74.11
2023-04-20T01:46:18.971Z,75.28
2023-04-20T01:48:48.605Z,75.27
2023-04-20T01:51:17.018Z,75.95
2023-04-20T01:53:45.789Z,76.36
2023-04-20T01:56:15.560Z,76.76
2023-04-20T01:58:44.120Z,76.15
2023-04-20T02:01:12.420Z,77.08
2023-04-20T02:03:41.116Z,77.71
2023-04-20T02:06:09.963Z,76.63
2023-04-20T02:08:38.247Z,77.96
2023-04-20T02:11:09.411Z,78.08
2023-04-20T02:13:39.090Z,76.60
2023-04-20T02:16:08.012Z,77.62
2023-04-20T02:18:37.356Z,77.78
2023-04-20T02:21:06.329Z,76.58
2023-04-20T02:23:34.771Z,78.76
2023-04-20T02:26:02.981Z,78.15
2023-04-20T02:28:31.228Z,78.01
2023-04-20T02:31:00.908Z,78.29
2023-04-20T02:33:29.283Z,80.17
2023-04-20T02:35:57.512Z,79.37
2023-04-20T02:38:25.931Z,80.56
2023-04-20T02:40:54.233Z,80.86
2023-04-20T02:43:22.600Z,81.10
2023-04-20T02:45:51.178Z,81.17
2023-04-20T02:48:23.243Z,81.04
2023-04-20T02:50:51.559Z,82.42
2023-04-20T02:53:23.101Z,79.82
2023-04-20T02:56:11.645Z,79.12
2023-04-20T02:58:48.293Z,79.26
2023-04-20T03:01:30.783Z,78.66
2023-04-20T03:04:13.850Z,79.18
2023-04-20T03:06:51.567Z,78.53
2023-04-20T03:09:25.878Z,77.86
2023-04-20T03:11:59.398Z,77.21
2023-04-20T03:14:45.140Z,77.91
2023-04-20T03:17:13.492Z,78.69
2023-04-20T03:19:43.767Z,79.60
2023-04-20T03:22:12.053Z,81.20
2023-04-20T03:24:40.336Z,82.35
2023-04-20T03:27:19.362Z,83.64
2023-04-20T03:30:01.510Z,83.83
2023-04-20T03:32:32.740Z,84.35
2023-04-20T03:35:11.310Z,85.23
2023-04-20T03:37:41.381Z,85.22
2023-04-20T03:40:11.118Z,85.92
2023-04-20T03:42:39.467Z,84.81
2023-04-20T03:45:08.526Z,84.88
2023-04-20T03:47:36.897Z,86.25
2023-04-20T03:50:05.899Z,85.13
2023-04-20T03:52:35.613Z,85.06
2023-04-20T03:55:07.565Z,85.14
2023-04-20T03:57:39.183Z,85.64
2023-04-20T04:00:10.847Z,86.35
2023-04-20T04:02:57.020Z,87.65
2023-04-20T04:05:29.355Z,87.22
2023-04-20T04:07:59.091Z,87.91
2023-04-20T04:10:28.560Z,89.28
2023-04-20T04:12:56.788Z,89.74
2023-04-20T04:15:25.292Z,90.33
2023-04-20T04:18:03.419Z,91.06
2023-04-20T04:20:34.130Z,91.65
2023-04-20T04:23:04.186Z,92.45
2023-04-20T04:25:44.080Z,92.73
2023-04-20T04:28:14.839Z,93.24
2023-04-20T04:31:05.991Z,93.91
2023-04-20T04:33:35.571Z,94.63
2023-04-20T04:36:06.175Z,94.57
2023-04-20T04:38:37.330Z,94.49
2023-04-20T04:41:05.904Z,94.51
2023-04-20T04:43:34.663Z,94.51
2023-04-20T04:46:14.929Z,95.04
2023-04-20T04:48:43.475Z,94.74
2023-04-20T04:51:12.382Z,94.96
2023-04-20T04:53:45.288Z,94.79
2023-04-20T04:56:14.223Z,95.07
2023-04-20T04:58:42.504Z,94.51
2023-04-20T05:01:11.222Z,94.24
2023-04-20T05:03:39.920Z,95.09
2023-04-20T05:06:08.769Z,94.07
2023-04-20T05:08:36.984Z,93.85
2023-04-20T05:11:06.778Z,93.49
2023-04-20T05:13:35.287Z,93.39
2023-04-20T05:16:03.631Z,92.11
2023-04-20T05:18:31.940Z,93.22
2023-04-20T05:21:01.050Z,92.67
2023-04-20T05:23:29.427Z,92.27
2023-04-20T05:25:57.967Z,91.07
2023-04-20T05:28:27.976Z,91.19
2023-04-20T05:30:56.234Z,91.12
2023-04-20T05:33:24.445Z,92.55
2023-04-20T05:35:56.550Z,90.85
2023-04-20T05:38:24.904Z,91.42
2023-04-20T05:40:53.296Z,90.72
2023-04-20T05:43:21.577Z,90.97
2023-04-20T05:45:51.229Z,92.06
2023-04-20T05:48:19.521Z,93.71
2023-04-20T05:50:48.223Z,95.24
2023-04-20T05:53:16.647Z,95.59
2023-04-20T05:55:44.853Z,95.47
2023-04-20T05:58:13.225Z,95.54
2023-04-20T06:00:41.804Z,95.37
2023-04-20T06:03:11.512Z,95.45
2023-04-20T06:05:40.025Z,95.64
2023-04-20T06:08:08.355Z,95.72
2023-04-20T06:10:36.601Z,95.78
2023-04-20T06:13:04.875Z,96.09
2023-04-20T06:15:33.258Z,96.40
2023-04-20T06:18:01.949Z,97.32
2023-04-20T06:20:31.612Z,97.78
2023-04-20T06:22:59.873Z,96.47
2023-04-20T06:25:28.381Z,96.95
2023-04-20T06:27:56.710Z,96.46
2023-04-20T06:30:24.961Z,96.49
2023-04-20T06:32:53.288Z,96.36
2023-04-20T06:35:22.619Z,95.88
2023-04-20T06:37:52.355Z,95.61
2023-04-20T06:40:20.616Z,95.64
2023-04-20T06:42:48.889Z,95.77
2023-04-20T06:45:18.232Z,96.37
2023-04-20T06:47:46.625Z,96.55
2023-04-20T06:50:14.993Z,96.70
2023-04-20T06:52:43.332Z,96.84
2023-04-20T06:55:13.368Z,97.59
2023-04-20T06:57:44.035Z,97.51
2023-04-20T07:00:13.600Z,97.21
2023-04-20T07:02:46.565Z,97.07
2023-04-20T07:05:15.434Z,97.02
2023-04-20T07:07:43.820Z,97.84
2023-04-20T07:10:15.077Z,97.32
2023-04-20T07:12:44.247Z,97.42
2023-04-20T07:15:13.137Z,97.28
2023-04-20T07:17:41.919Z,97.49
2023-04-20T07:20:11.129Z,97.86
2023-04-20T07:22:40.251Z,97.63
2023-04-20T07:25:10.022Z,97.94
2023-04-20T07:27:40.985Z,97.84
2023-04-20T07:30:10.798Z,98.23
2023-04-20T07:32:39.506Z,97.72
2023-04-20T07:35:08.930Z,98.09
2023-04-20T07:37:37.246Z,97.80
2023-04-20T07:40:07.000Z,98.22
2023-04-20T07:42:37.122Z,97.81
2023-04-20T07:45:08.144Z,98.23
2023-04-20T07:47:36.911Z,98.32
2023-04-20T07:50:05.898Z,98.29
2023-04-20T07:52:35.739Z,99.25
2023-04-20T07:55:03.982Z,98.81
2023-04-20T07:57:33.494Z,98.40
2023-04-20T08:00:01.745Z,99.42
2023-04-20T08:02:43.308Z,99.51
2023-04-20T08:05:11.953Z,97.62
2023-04-20T08:07:40.758Z,97.65
2023-04-20T08:10:10.602Z,98.45
2023-04-20T08:12:39.836Z,98.14
2023-04-20T08:15:09.624Z,97.70
2023-04-20T08:17:38.310Z,98.01
2023-04-20T08:20:10.697Z,98.41
2023-04-20T08:22:39.801Z,97.85
2023-04-20T08:25:08.534Z,97.90
2023-04-20T08:27:36.882Z,97.60
2023-04-20T08:30:06.055Z,97.07
2023-04-20T08:32:35.210Z,97.50
2023-04-20T08:35:04.411Z,97.26
2023-04-20T08:37:34.155Z,97.51
2023-04-20T08:40:02.452Z,96.62
2023-04-20T08:42:30.716Z,97.35
2023-04-20T08:44:59.362Z,98.00
2023-04-20T08:47:30.069Z,96.99
2023-04-20T08:50:00.892Z,97.15
2023-04-20T08:52:29.236Z,96.72
2023-04-20T08:54:58.848Z,96.71
2023-04-20T08:57:27.221Z,95.80
2023-04-20T08:59:56.107Z,96.55
2023-04-20T09:02:24.530Z,97.10
2023-04-20T09:05:02.981Z,97.00
2023-04-20T09:07:31.497Z,97.77
2023-04-20T09:10:02.127Z,96.22
2023-04-20T09:12:30.368Z,97.70
2023-04-20T09:14:58.607Z,97.09
2023-04-20T09:17:34.787Z,96.59
2023-04-20T09:20:05.062Z,95.30
2023-04-20T09:22:34.295Z,94.67
2023-04-20T09:25:14.591Z,93.58
2023-04-20T09:27:42.872Z,93.53
2023-04-20T09:30:11.933Z,92.49
2023-04-20T09:32:40.206Z,95.33
2023-04-20T09:35:09.133Z,95.83
2023-04-20T09:37:47.759Z,94.71
2023-04-20T09:40:18.153Z,92.04
2023-04-20T09:42:49.514Z,92.82
2023-04-20T09:45:18.891Z,92.06
2023-04-20T09:47:49.959Z,93.01
2023-04-20T09:50:26.731Z,92.59
2023-04-20T09:53:01.766Z,93.37
2023-04-20T09:55:32.154Z,93.56
2023-04-20T09:58:03.012Z,93.11
2023-04-20T10:00:31.538Z,93.13
2023-04-20T10:02:59.971Z,93.04
2023-04-20T10:05:36.748Z,92.42
2023-04-20T10:08:05.131Z,93.26
2023-04-20T10:10:51.487Z,93.11
2023-04-20T10:13:21.969Z,92.49
2023-04-20T10:15:50.388Z,92.30
2023-04-20T10:18:20.893Z,92.19
2023-04-20T10:20:49.496Z,93.11
2023-04-20T10:23:19.831Z,92.30
2023-04-20T10:26:01.097Z,93.33
2023-04-20T10:28:40.721Z,93.04
2023-04-20T10:31:13.043Z,93.69
2023-04-20T10:33:51.294Z,91.79
2023-04-20T10:36:28.385Z,92.25
2023-04-20T10:38:57.142Z,91.78
2023-04-20T10:41:27.218Z,91.70
2023-04-20T10:43:55.455Z,92.80
2023-04-20T10:46:25.314Z,91.75
2023-04-20T10:48:55.143Z,91.39
2023-04-20T10:51:24.147Z,90.97
2023-04-20T10:54:04.625Z,89.48
2023-04-20T10:56:42.153Z,88.44
2023-04-20T10:59:11.361Z,88.19
2023-04-20T11:01:39.835Z,88.63
2023-04-20T11:04:08.212Z,87.37
2023-04-20T11:06:37.860Z,87.35
2023-04-20T11:09:06.259Z,88.03
2023-04-20T11:11:37.359Z,89.48
2023-04-20T11:14:11.603Z,87.45
2023-04-20T11:16:51.346Z,86.91
2023-04-20T11:19:28.030Z,85.51
2023-04-20T11:21:56.584Z,86.67
2023-04-20T11:24:26.386Z,87.07
2023-04-20T11:26:56.154Z,86.61
2023-04-20T11:29:34.137Z,88.52
2023-04-20T11:32:05.148Z,89.48
2023-04-20T11:34:34.260Z,88.55
2023-04-20T11:37:05.642Z,91.69
2023-04-20T11:39:34.336Z,91.26
2023-04-20T11:42:02.850Z,92.11
2023-04-20T11:44:33.018Z,92.69
2023-04-20T11:47:01.940Z,92.29
2023-04-20T11:49:30.944Z,92.93
2023-04-20T11:51:59.448Z,94.29
2023-04-20T11:54:29.697Z,94.62
2023-04-20T11:56:59.065Z,94.26
2023-04-20T11:59:27.406Z,95.43
2023-04-20T12:01:57.079Z,95.30
2023-04-20T12:04:25.992Z,94.23
2023-04-20T12:06:54.543Z,94.16
2023-04-20T12:09:22.824Z,94.10
2023-04-20T12:11:51.073Z,92.79
2023-04-20T12:14:19.512Z,92.68
2023-04-20T12:16:47.905Z,91.03
2023-04-20T12:19:17.872Z,89.69
2023-04-20T12:21:47.334Z,89.99
2023-04-20T12:24:15.650Z,89.52
2023-04-20T12:26:43.910Z,88.98
2023-04-20T12:29:12.204Z,89.39
2023-04-20T12:31:40.585Z,87.90
2023-04-20T12:34:08.931Z,87.73
2023-04-20T12:36:40.497Z,88.84
2023-04-20T12:39:08.819Z,87.61
2023-04-20T12:41:37.053Z,89.61
2023-04-20T12:44:07.629Z,88.09
2023-04-20T12:46:37.845Z,88.44
2023-04-20T12:49:06.255Z,86.07
2023-04-20T12:51:34.459Z,84.62
2023-04-20T12:54:04.342Z,85.38
2023-04-20T12:56:32.692Z,84.27
2023-04-20T12:59:00.926Z,83.95
2023-04-20T13:01:29.267Z,84.30
2023-04-20T13:03:57.909Z,85.03
2023-04-20T13:06:26.414Z,86.35
2023-04-20T13:08:54.761Z,88.92
2023-04-20T13:11:26.702Z,91.56
2023-04-20T13:13:56.531Z,89.99
2023-04-20T13:16:25.149Z,92.91
2023-04-20T13:18:53.386Z,89.75
2023-04-20T13:21:22.042Z,91.96
2023-04-20T13:23:50.366Z,89.96
2023-04-20T13:26:18.719Z,91.58
2023-04-20T13:28:48.398Z,94.95
2023-04-20T13:31:16.678Z,93.77
2023-04-20T13:33:45.095Z,96.05
2023-04-20T13:36:13.344Z,97.51
2023-04-20T13:38:41.609Z,98.12
2023-04-20T13:41:09.844Z,99.69
2023-04-20T13:43:38.054Z,98.02
2023-04-20T13:46:07.822Z,97.95
2023-04-20T13:48:36.078Z,98.64
2023-04-20T13:51:04.312Z,98.55
2023-04-20T13:53:32.616Z,98.66
2023-04-20T13:56:01.021Z,99.55
2023-04-20T13:58:29.620Z,97.35
2023-04-20T14:00:57.945Z,99.55
2023-04-20T14:03:28.065Z,97.66
2023-04-20T14:05:56.410Z,96.00
2023-04-20T14:08:24.806Z,94.90
2023-04-20T14:10:53.082Z,95.39
2023-04-20T14:13:21.506Z,96.84
2023-04-20T14:15:49.864Z,97.90
2023-04-20T14:18:18.275Z,98.18
2023-04-20T14:20:52.219Z,96.81
2023-04-20T14:23:20.602Z,91.26
2023-04-20T14:25:48.853Z,85.99
2023-04-20T14:28:17.854Z,85.19
2023-04-20T14:30:46.412Z,88.22
2023-04-20T14:33:14.868Z,86.90
2023-04-20T14:35:43.152Z,91.46
2023-04-20T14:38:12.798Z,93.57
2023-04-20T14:40:41.509Z,100.64
2023-04-20T14:43:10.098Z,98.19
2023-04-20T14:45:41.508Z,98.95
2023-04-20T14:48:09.799Z,97.80
2023-04-20T14:50:38.195Z,94.62
2023-04-20T14:53:06.489Z,88.22
2023-04-20T14:55:36.297Z,90.27
2023-04-20T14:58:04.575Z,89.12
2023-04-20T15:00:32.954Z,89.79
2023-04-20T15:03:01.448Z,87.71
2023-04-20T15:05:31.642Z,90.08
2023-04-20T15:08:00.107Z,92.54
2023-04-20T15:10:28.355Z,94.97
2023-04-20T15:12:58.030Z,96.58
2023-04-20T15:15:34.574Z,96.51
2023-04-20T15:18:10.028Z,87.61
2023-04-20T15:20:38.293Z,77.86
2023-04-20T15:23:06.639Z,76.00
2023-04-20T15:25:34.955Z,76.04
2023-04-20T15:28:13.578Z,72.79
2023-04-20T15:30:42.180Z,69.04
2023-04-20T15:33:10.901Z,66.44
2023-04-20T15:35:39.608Z,65.75
2023-04-20T15:38:12.991Z,63.50
2023-04-20T15:40:41.624Z,63.98
2023-04-20T15:43:09.934Z,64.68
2023-04-20T15:45:39.545Z,67.95
2023-04-20T15:48:09.080Z,63.15
2023-04-20T15:50:37.399Z,63.77
2023-04-20T15:53:05.644Z,63.39
2023-04-20T15:55:35.671Z,62.74
2023-04-20T15:58:03.986Z,63.58
2023-04-20T16:00:32.515Z,66.09
2023-04-20T16:03:02.507Z,61.23
2023-04-20T16:05:31.089Z,63.76
2023-04-20T16:07:59.363Z,63.62
2023-04-20T16:10:28.072Z,62.78
2023-04-20T16:12:56.879Z,66.40
2023-04-20T16:15:25.753Z,63.34
2023-04-20T16:17:54.661Z,62.09
2023-04-20T16:20:24.487Z,61.05
2023-04-20T16:22:52.772Z,62.06
2023-04-20T16:25:24.039Z,61.09
2023-04-20T16:27:52.540Z,59.44
2023-04-20T16:30:21.242Z,60.80
2023-04-20T16:32:49.741Z,61.36
2023-04-20T16:35:18.117Z,61.82
2023-04-20T16:37:47.983Z,61.78
2023-04-20T16:40:16.262Z,62.66
2023-04-20T16:42:44.544Z,63.18
2023-04-20T16:45:12.957Z,62.75
2023-04-20T16:47:41.357Z,63.36
2023-04-20T16:50:11.809Z,63.15
2023-04-20T16:52:40.072Z,63.38
2023-04-20T16:55:10.833Z,65.01
2023-04-20T16:57:39.121Z,61.45
2023-04-20T17:00:10.750Z,62.33
2023-04-20T17:02:39.273Z,60.44
2023-04-20T17:05:08.636Z,60.23
2023-04-20T17:07:37.402Z,59.36
2023-04-20T17:10:07.296Z,60.72
2023-04-20T17:12:37.438Z,60.90
2023-04-20T17:15:07.938Z,61.80
2023-04-20T17:17:36.231Z,61.79
2023-04-20T17:20:07.007Z,62.28
2023-04-20T17:22:36.505Z,62.98
2023-04-20T17:25:07.444Z,62.08
2023-04-20T17:27:37.572Z,63.06
2023-04-20T17:30:07.167Z,62.06
2023-04-20T17:32:35.682Z,62.01
2023-04-20T17:35:04.411Z,62.18
2023-04-20T17:37:32.744Z,62.53
2023-04-20T17:40:01.487Z,62.86
2023-04-20T17:42:29.764Z,63.44
2023-04-20T17:44:59.419Z,62.48
2023-04-20T17:47:28.482Z,62.27
2023-04-20T17:49:57.072Z,62.51
2023-04-20T17:52:25.313Z,62.47
2023-04-20T17:54:54.582Z,62.11
2023-04-20T17:57:22.859Z,62.31
2023-04-20T17:59:51.118Z,62.73
2023-04-20T18:02:21.148Z,63.37
2023-04-20T18:04:49.763Z,62.86
2023-04-20T18:07:18.774Z,62.11
2023-04-20T18:09:47.124Z,61.76
2023-04-20T18:12:15.548Z,61.82
2023-04-20T18:14:44.136Z,61.53
2023-04-20T18:17:12.643Z,61.01
2023-04-20T18:19:42.332Z,60.68
2023-04-20T18:22:10.631Z,61.11
2023-04-20T18:24:39.080Z,61.87
2023-04-20T18:27:07.323Z,61.44
2023-04-20T18:29:35.820Z,61.00
2023-04-20T18:32:04.253Z,61.11
2023-04-20T18:34:32.556Z,60.99
2023-04-20T18:37:02.136Z,61.94
2023-04-20T18:39:30.905Z,61.05
2023-04-20T18:41:59.150Z,63.31
2023-04-20T18:44:28.387Z,61.96
2023-04-20T18:46:56.836Z,61.76
2023-04-20T18:49:25.163Z,61.60
2023-04-20T18:51:53.606Z,61.96
2023-04-20T18:54:23.330Z,62.27
2023-04-20T18:56:52.244Z,61.62
2023-04-20T18:59:20.625Z,62.63
2023-04-20T19:01:49.873Z,61.87
2023-04-20T19:04:18.656Z,61.60
2023-04-20T19:06:47.214Z,61.63
2023-04-20T19:09:15.699Z,61.38
2023-04-20T19:11:45.350Z,61.09
2023-04-20T19:14:13.671Z,62.35
2023-04-20T19:16:42.032Z,61.62
2023-04-20T19:19:10.712Z,62.18
2023-04-20T19:21:39.042Z,61.82
2023-04-20T19:24:08.500Z,61.55
2023-04-20T19:26:36.814Z,62.24
2023-04-20T19:29:06.553Z,61.96
2023-04-20T19:31:37.922Z,61.83
2023-04-20T19:34:07.462Z,61.99
2023-04-20T19:36:35.922Z,62.12
2023-04-20T19:39:04.270Z,62.37
2023-04-20T19:41:32.532Z,62.65
2023-04-20T19:44:04.469Z,62.43
2023-04-20T19:46:34.665Z,62.53
2023-04-20T19:49:03.459Z,62.64
2023-04-20T19:51:32.807Z,62.89
2023-04-20T19:54:03.252Z,63.13
2023-04-20T19:56:31.882Z,62.96
2023-04-20T19:59:00.219Z,62.81
2023-04-20T20:01:28.631Z,62.34
2023-04-20T20:03:58.475Z,62.35
2023-04-20T20:06:27.510Z,63.05
2023-04-20T20:08:55.878Z,62.88
2023-04-20T20:11:25.381Z,63.22
2023-04-20T20:13:54.165Z,62.83
2023-04-20T20:16:22.619Z,62.73
2023-04-20T20:18:51.411Z,62.46
2023-04-20T20:21:21.252Z,63.10
2023-04-20T20:23:49.581Z,63.02
2023-04-20T20:26:17.878Z,63.05
2023-04-20T20:28:46.241Z,62.70
2023-04-20T20:31:14.563Z,62.93
2023-04-20T20:33:43.096Z,62.51
2023-04-20T20:36:11.425Z,63.06
2023-04-20T20:38:41.301Z,62.54
2023-04-20T20:41:10.853Z,62.39
2023-04-20T20:43:41.909Z,62.81
2023-04-20T20:46:10.497Z,62.44
2023-04-20T20:48:38.832Z,62.49
2023-04-20T20:51:07.141Z,62.70
2023-04-20T20:53:35.431Z,62.14
2023-04-20T20:56:05.221Z,62.94
2023-04-20T20:58:33.524Z,62.87
2023-04-20T21:01:01.889Z,62.31
2023-04-20T21:03:30.617Z,62.26
2023-04-20T21:05:59.045Z,62.95
2023-04-20T21:08:27.317Z,62.76
2023-04-20T21:10:55.686Z,62.43
2023-04-20T21:13:25.401Z,62.07
2023-04-20T21:15:53.710Z,62.24
2023-04-20T21:18:22.097Z,62.47
2023-04-20T21:20:50.378Z,62.26
2023-04-20T21:23:18.809Z,62.70
2023-04-20T21:25:47.113Z,62.37
2023-04-20T21:28:18.155Z,62.78
2023-04-20T21:30:47.830Z,61.79
2023-04-20T21:33:16.119Z,62.00
2023-04-20T21:35:44.406Z,61.42
2023-04-20T21:38:12.718Z,62.01
2023-04-20T21:40:41.067Z,61.87
2023-04-20T21:43:09.328Z,61.94
2023-04-20T21:45:37.740Z,62.16
2023-04-20T21:48:07.920Z,61.86
2023-04-20T21:50:37.912Z,62.20
2023-04-20T21:53:06.200Z,62.25
2023-04-20T21:55:34.427Z,62.04
2023-04-20T21:58:02.684Z,62.07
2023-04-20T22:00:30.993Z,62.18
2023-04-20T22:02:59.421Z,62.47
2023-04-20T22:05:29.434Z,62.73
2023-04-20T22:07:58.239Z,62.01
2023-04-20T22:10:26.624Z,62.26
2023-04-20T22:12:54.847Z,62.41
2023-04-20T22:15:23.459Z,62.25
2023-04-20T22:17:51.837Z,62.57
2023-04-20T22:20:20.105Z,62.58
2023-04-20T22:22:49.900Z,62.44
2023-04-20T22:25:18.245Z,62.52
2023-04-20T22:27:46.522Z,62.64
2023-04-20T22:30:15.302Z,62.97
2023-04-20T22:32:43.574Z,62.76
2023-04-20T22:35:11.903Z,62.78
2023-04-20T22:37:40.913Z,62.79
2023-04-20T22:40:12.397Z,62.50
2023-04-20T22:42:40.719Z,62.58
2023-04-20T22:45:10.880Z,63.21
2023-04-20T22:47:39.478Z,63.14
2023-04-20T22:50:09.742Z,63.21
2023-04-20T22:52:38.531Z,62.61
2023-04-20T22:55:08.049Z,63.11
2023-04-20T22:57:38.953Z,62.86
2023-04-20T23:00:10.776Z,62.88
2023-04-20T23:02:39.304Z,63.06
2023-04-20T23:05:08.448Z,62.95
2023-04-20T23:07:37.556Z,63.19
2023-04-20T23:10:07.182Z,63.13
2023-04-20T23:12:35.457Z,63.22
2023-04-20T23:15:05.994Z,63.40
2023-04-20T23:17:34.240Z,63.34
2023-04-20T23:20:02.698Z,63.40
2023-04-20T23:22:30.901Z,63.18
2023-04-20T23:24:59.099Z,63.41
2023-04-20T23:27:27.463Z,63.69
2023-04-20T23:29:55.688Z,63.69
2023-04-20T23:32:25.994Z,63.51
2023-04-20T23:34:54.340Z,63.34
2023-04-20T23:37:22.571Z,63.63
2023-04-20T23:39:50.787Z,63.20
2023-04-20T23:42:19.149Z,63.58
2023-04-20T23:44:47.379Z,63.69
2023-04-20T23:47:15.642Z,63.97
2023-04-20T23:49:45.315Z,63.76
2023-04-20T23:52:13.674Z,63.82
2023-04-20T23:54:41.927Z,64.03
2023-04-20T23:57:10.195Z,63.92
2023-04-20T23:59:38.542Z,64.12
